Time;durP1;ratioP1;P1;durP2;ratioP2;P2;SDS_P1;SDS_P2;PMS_P1;PMS_P2;Temp;Humidity;BMP_temperature;BMP_pressure;BME280_temperature;BME280_humidity;BME280_pressure;Samples;Min_cycle;Max_cycle;Signal;HPM_P1;HPM_P2
2022/04/29 00:00:27;;;;;;;3.58;2.05;;;13.30;99.90;;;;;;1039163;28;20117;-63
2022/04/29 00:00:58;;;;;;;5.47;2.30;;;13.30;99.90;;;;;;1039359;28;20014;-63
2022/04/29 00:01:28;;;;;;;4.27;2.10;;;13.30;99.90;;;;;;1039343;28;20147;-63
2022/04/29 00:01:59;;;;;;;3.70;2.43;;;13.30;99.90;;;;;;1039209;28;20093;-63
2022/04/29 00:02:31;;;;;;;4.47;2.05;;;13.30;99.90;;;;;;1038374;28;20009;-62
2022/04/29 00:03:02;;;;;;;3.85;2.00;;;13.30;99.90;;;;;;1039271;28;20022;-62
2022/04/29 00:03:32;;;;;;;4.18;2.13;;;13.30;99.90;;;;;;1039281;28;20698;-62
2022/04/29 00:04:04;;;;;;;4.80;2.30;;;13.30;99.90;;;;;;1039042;28;20693;-62
2022/04/29 00:04:38;;;;;;;4.00;2.25;;;13.30;99.90;;;;;;1039177;28;20165;-61
2022/04/29 00:05:09;;;;;;;5.60;2.30;;;13.30;99.90;;;;;;1039335;28;20428;-62
2022/04/29 00:05:42;;;;;;;2.90;1.85;;;13.30;99.90;;;;;;1036748;28;20041;-61
2022/04/29 00:06:14;;;;;;;4.10;1.90;;;13.30;99.90;;;;;;1038058;28;20052;-64
2022/04/29 00:06:44;;;;;;;4.57;2.20;;;13.30;99.90;;;;;;1035163;28;20020;-63
2022/04/29 00:07:15;;;;;;;3.23;2.10;;;13.30;99.90;;;;;;1031211;28;20029;-62
2022/04/29 00:07:46;;;;;;;3.57;1.70;;;13.30;99.90;;;;;;1034684;28;20046;-62
2022/04/29 00:08:17;;;;;;;5.00;2.40;;;13.30;99.90;;;;;;1030933;28;20081;-63
2022/04/29 00:08:47;;;;;;;4.68;2.35;;;13.30;99.90;;;;;;1035251;28;20051;-64
2022/04/29 00:09:18;;;;;;;4.80;1.90;;;13.30;99.90;;;;;;1035638;28;20381;-62
2022/04/29 00:09:48;;;;;;;3.70;1.97;;;13.30;99.90;;;;;;1035486;28;20561;-62
2022/04/29 00:10:19;;;;;;;4.23;2.50;;;13.30;99.90;;;;;;1035319;28;20025;-62
2022/04/29 00:10:50;;;;;;;2.25;1.85;;;13.30;99.90;;;;;;1035472;28;20041;-61
2022/04/29 00:11:21;;;;;;;3.47;1.70;;;13.30;99.90;;;;;;1035650;28;20018;-63
2022/04/29 00:11:52;;;;;;;2.73;1.97;;;13.30;99.90;;;;;;1035468;28;20021;-62
2022/04/29 00:12:23;;;;;;;4.40;2.00;;;13.30;99.90;;;;;;1035281;28;20475;-62
2022/04/29 00:12:54;;;;;;;3.83;2.03;;;13.30;99.90;;;;;;1035489;28;20364;-61
2022/04/29 00:13:24;;;;;;;5.67;2.30;;;13.30;99.90;;;;;;1039336;28;20017;-61
2022/04/29 00:13:55;;;;;;;3.13;1.77;;;13.30;99.90;;;;;;1039257;28;20012;-62
2022/04/29 00:14:26;;;;;;;3.93;2.30;;;13.30;99.90;;;;;;1039038;28;20019;-63
2022/04/29 00:14:56;;;;;;;4.00;1.93;;;13.30;99.90;;;;;;1036617;28;20225;-62
2022/04/29 00:15:28;;;;;;;2.87;1.83;;;13.30;99.90;;;;;;1035065;28;20022;-62
2022/04/29 00:15:59;;;;;;;2.88;1.73;;;13.30;99.90;;;;;;1035163;28;20025;-63
2022/04/29 00:16:30;;;;;;;2.75;1.80;;;13.30;99.90;;;;;;1034840;28;20021;-62
2022/04/29 00:17:01;;;;;;;2.83;1.90;;;13.20;99.90;;;;;;1035340;28;20101;-62
2022/04/29 00:17:33;;;;;;;3.05;2.13;;;13.20;99.90;;;;;;1035702;28;20017;-62
2022/04/29 00:18:04;;;;;;;4.68;1.98;;;13.20;99.90;;;;;;1039510;28;20040;-63
2022/04/29 00:18:34;;;;;;;4.55;1.90;;;13.20;99.90;;;;;;1039406;28;20194;-62
2022/04/29 00:19:05;;;;;;;2.23;1.80;;;13.20;99.90;;;;;;1039780;28;20724;-62
2022/04/29 00:19:35;;;;;;;2.77;1.63;;;13.20;99.90;;;;;;1039600;28;20049;-61
2022/04/29 00:20:08;;;;;;;4.03;2.30;;;13.20;99.90;;;;;;1039158;28;20018;-63
2022/04/29 00:20:39;;;;;;;3.90;1.90;;;13.20;99.90;;;;;;1037272;28;20105;-61
2022/04/29 00:21:09;;;;;;;5.03;2.50;;;13.20;99.90;;;;;;1038139;28;20033;-64
2022/04/29 00:21:43;;;;;;;3.33;1.80;;;13.20;99.90;;;;;;1034903;28;20034;-62
2022/04/29 00:22:13;;;;;;;2.92;2.03;;;13.20;99.90;;;;;;1039138;28;20029;-63
2022/04/29 00:22:44;;;;;;;4.87;2.23;;;13.20;99.90;;;;;;1038387;28;20112;-63
2022/04/29 00:23:14;;;;;;;4.93;1.97;;;13.20;99.90;;;;;;1039404;28;20025;-63
2022/04/29 00:23:45;;;;;;;3.57;2.10;;;13.20;99.90;;;;;;1039647;28;20037;-64
2022/04/29 00:24:16;;;;;;;2.77;1.83;;;13.20;99.90;;;;;;1039343;28;20389;-63
2022/04/29 00:24:46;;;;;;;4.30;2.33;;;13.10;99.90;;;;;;1039534;28;20017;-61
2022/04/29 00:25:17;;;;;;;6.83;2.37;;;13.20;99.90;;;;;;1039509;28;20424;-63
2022/04/29 00:25:48;;;;;;;5.27;2.40;;;13.20;99.90;;;;;;1039481;28;20071;-66
2022/04/29 00:26:18;;;;;;;3.23;1.90;;;13.10;99.90;;;;;;1039370;28;20436;-61
2022/04/29 00:26:49;;;;;;;4.07;2.30;;;13.10;99.90;;;;;;1038963;28;20156;-62
2022/04/29 00:27:20;;;;;;;5.23;2.03;;;13.10;99.90;;;;;;1039335;28;20556;-62
2022/04/29 00:27:50;;;;;;;3.23;2.00;;;13.10;99.90;;;;;;1039306;28;20064;-61
2022/04/29 00:28:21;;;;;;;5.47;2.33;;;13.10;99.90;;;;;;1039015;28;20045;-62
2022/04/29 00:28:51;;;;;;;3.73;1.80;;;13.10;99.90;;;;;;1039455;28;20223;-61
2022/04/29 00:29:22;;;;;;;4.70;2.70;;;13.10;99.90;;;;;;1039291;28;20122;-61
2022/04/29 00:29:52;;;;;;;2.37;2.00;;;13.10;99.90;;;;;;1039177;28;20008;-61
2022/04/29 00:30:23;;;;;;;5.67;2.50;;;13.10;99.90;;;;;;1039018;28;20571;-61
2022/04/29 00:30:54;;;;;;;2.90;1.97;;;13.10;99.90;;;;;;1035201;28;20021;-61
2022/04/29 00:31:25;;;;;;;3.30;1.97;;;13.10;99.90;;;;;;1035007;28;20347;-61
2022/04/29 00:31:55;;;;;;;3.87;2.57;;;13.10;99.90;;;;;;1035187;28;20010;-61
2022/04/29 00:32:26;;;;;;;2.40;2.03;;;13.10;99.90;;;;;;1035065;28;20092;-63
2022/04/29 00:32:56;;;;;;;5.67;2.27;;;13.10;99.90;;;;;;1038508;28;20024;-62
2022/04/29 00:33:27;;;;;;;5.10;2.27;;;13.00;99.90;;;;;;1039757;28;20503;-61
2022/04/29 00:33:58;;;;;;;3.43;2.00;;;13.10;99.90;;;;;;1039575;28;20017;-61
2022/04/29 00:34:28;;;;;;;3.53;1.92;;;13.10;99.90;;;;;;1039253;28;20016;-62
2022/04/29 00:34:59;;;;;;;4.77;2.20;;;13.00;99.90;;;;;;1039614;28;20037;-62
2022/04/29 00:35:30;;;;;;;3.42;2.17;;;13.00;99.90;;;;;;1039228;28;20002;-63
2022/04/29 00:36:00;;;;;;;5.33;2.40;;;13.00;99.90;;;;;;1036404;28;20025;-62
2022/04/29 00:36:31;;;;;;;4.40;1.87;;;13.00;99.90;;;;;;1038437;28;20097;-61
2022/04/29 00:37:02;;;;;;;4.13;2.20;;;13.00;99.90;;;;;;1039076;28;20547;-61
2022/04/29 00:37:41;;;;;;;4.80;2.23;;;13.00;99.90;;;;;;1038691;28;20639;-62
2022/04/29 00:38:15;;;;;;;3.38;2.03;;;13.00;99.90;;;;;;1039133;28;20055;-61
2022/04/29 00:38:45;;;;;;;4.47;2.30;;;13.00;99.90;;;;;;1039370;28;20006;-63
2022/04/29 00:39:16;;;;;;;3.60;2.10;;;13.00;99.90;;;;;;1039537;28;20018;-63
2022/04/29 00:39:47;;;;;;;4.70;1.90;;;13.00;99.90;;;;;;1039625;28;20103;-63
2022/04/29 00:40:19;;;;;;;6.20;2.57;;;13.00;99.90;;;;;;1039006;28;20051;-61
2022/04/29 00:40:50;;;;;;;3.47;1.80;;;13.00;99.90;;;;;;1039084;28;20041;-61
2022/04/29 00:41:22;;;;;;;4.43;2.60;;;13.00;99.90;;;;;;1039406;28;20010;-62
2022/04/29 00:41:53;;;;;;;3.50;1.95;;;13.00;99.90;;;;;;1039068;28;20006;-63
2022/04/29 00:42:24;;;;;;;3.23;2.07;;;13.00;99.90;;;;;;1039437;28;20009;-62
2022/04/29 00:42:55;;;;;;;3.45;1.88;;;13.00;99.90;;;;;;1039441;28;20010;-63
2022/04/29 00:43:26;;;;;;;5.40;2.20;;;13.00;99.90;;;;;;1039629;28;20014;-63
2022/04/29 00:44:03;;;;;;;4.55;2.20;;;13.00;99.90;;;;;;1039512;28;20084;-62
2022/04/29 00:44:37;;;;;;;3.38;2.10;;;13.00;99.90;;;;;;1039164;28;20014;-63
2022/04/29 00:45:07;;;;;;;4.07;1.63;;;13.00;99.90;;;;;;1039581;28;20488;-63
2022/04/29 00:45:38;;;;;;;3.70;1.87;;;13.00;99.90;;;;;;1039621;28;20468;-62
2022/04/29 00:46:09;;;;;;;4.30;2.57;;;13.00;99.90;;;;;;1039533;28;20233;-63
2022/04/29 00:46:42;;;;;;;2.93;1.90;;;13.00;99.90;;;;;;1038856;28;20029;-63
2022/04/29 00:47:15;;;;;;;4.93;2.03;;;13.00;99.90;;;;;;1039334;28;20029;-63
2022/04/29 00:47:47;;;;;;;4.72;1.83;;;13.00;99.90;;;;;;1038817;28;20504;-63
2022/04/29 00:48:18;;;;;;;3.45;2.05;;;13.00;99.90;;;;;;1039130;28;20056;-63
2022/04/29 00:48:48;;;;;;;3.77;2.20;;;13.00;99.90;;;;;;1039333;28;20017;-63
2022/04/29 00:49:19;;;;;;;3.17;2.00;;;13.00;99.90;;;;;;1039227;28;20083;-62
2022/04/29 00:49:50;;;;;;;2.60;2.10;;;13.00;99.90;;;;;;1038985;28;20021;-63
2022/04/29 00:50:27;;;;;;;3.97;2.10;;;13.00;99.90;;;;;;1039269;28;20095;-63
2022/04/29 00:50:58;;;;;;;4.60;2.03;;;13.00;99.90;;;;;;1036726;28;20057;-63
2022/04/29 00:51:28;;;;;;;3.93;2.17;;;13.00;99.90;;;;;;1039828;28;20041;-62
2022/04/29 00:51:59;;;;;;;3.87;1.83;;;13.00;99.90;;;;;;1039714;28;20033;-62
2022/04/29 00:52:32;;;;;;;4.05;2.13;;;13.00;99.90;;;;;;1040102;28;20025;-62
2022/04/29 00:53:03;;;;;;;3.53;2.22;;;13.00;99.90;;;;;;1039597;28;20026;-62
2022/04/29 00:53:34;;;;;;;5.97;2.25;;;12.90;99.90;;;;;;1040381;28;20025;-62
2022/04/29 00:54:12;;;;;;;2.90;2.10;;;12.90;99.90;;;;;;1039904;28;20021;-62
2022/04/29 00:54:49;;;;;;;5.88;1.95;;;13.00;99.90;;;;;;1039654;28;20020;-62
2022/04/29 00:55:21;;;;;;;4.20;1.90;;;12.90;99.90;;;;;;1040053;28;20022;-63
2022/04/29 00:55:55;;;;;;;2.83;1.73;;;12.90;99.90;;;;;;1038242;28;20017;-62
2022/04/29 00:56:30;;;;;;;2.60;2.00;;;12.90;99.90;;;;;;1039743;28;20404;-62
2022/04/29 00:57:04;;;;;;;4.45;2.63;;;12.90;99.90;;;;;;1039880;28;20006;-62
2022/04/29 00:57:55;;;;;;;4.95;2.70;;;12.90;99.90;;;;;;1040042;28;20014;-62
2022/04/29 00:58:34;;;;;;;3.97;2.53;;;12.90;99.90;;;;;;1039982;28;20018;-64
2022/04/29 00:59:09;;;;;;;5.28;2.50;;;12.90;99.90;;;;;;1040082;28;20075;-63
2022/04/29 00:59:52;;;;;;;3.00;2.35;;;12.90;99.90;;;;;;1035922;28;20076;-62
2022/04/29 01:00:23;;;;;;;5.68;2.58;;;12.90;99.90;;;;;;1039479;28;20041;-62
2022/04/29 01:00:54;;;;;;;3.83;2.43;;;12.90;99.90;;;;;;1039718;28;20021;-62
2022/04/29 01:01:26;;;;;;;4.77;2.03;;;12.90;99.90;;;;;;1040249;28;20082;-62
2022/04/29 01:02:00;;;;;;;4.93;2.00;;;12.90;99.90;;;;;;1040337;28;20016;-63
2022/04/29 01:02:32;;;;;;;4.65;1.98;;;12.80;99.90;;;;;;1040153;28;20017;-63
2022/04/29 01:03:04;;;;;;;4.15;2.47;;;12.80;99.90;;;;;;1039482;28;20018;-62
2022/04/29 01:03:37;;;;;;;3.75;2.03;;;12.80;99.90;;;;;;1040247;28;20041;-62
2022/04/29 01:04:08;;;;;;;3.42;2.30;;;12.80;99.90;;;;;;1039656;28;20025;-63
2022/04/29 01:05:05;;;;;;;5.03;2.00;;;12.80;99.90;;;;;;1035619;28;20098;-62
2022/04/29 01:05:37;;;;;;;3.95;1.80;;;12.80;99.90;;;;;;1035734;28;20095;-62
2022/04/29 01:06:08;;;;;;;5.07;1.88;;;12.80;99.90;;;;;;1037007;28;20140;-65
2022/04/29 01:06:38;;;;;;;5.30;2.63;;;12.80;99.90;;;;;;1035981;28;20040;-62
2022/04/29 01:07:09;;;;;;;5.67;2.33;;;12.80;99.90;;;;;;1038176;28;20071;-63
2022/04/29 01:07:42;;;;;;;4.17;2.00;;;12.80;99.90;;;;;;1040450;28;20556;-63
2022/04/29 01:08:12;;;;;;;6.75;2.80;;;12.80;99.90;;;;;;1039371;28;20049;-62
2022/04/29 01:08:43;;;;;;;5.00;2.33;;;12.80;99.90;;;;;;1040057;28;20071;-64
2022/04/29 01:09:13;;;;;;;5.10;2.70;;;12.80;99.90;;;;;;1040194;28;20383;-62
2022/04/29 01:09:44;;;;;;;3.57;1.80;;;12.80;99.90;;;;;;1040418;28;20013;-62
2022/04/29 01:10:16;;;;;;;5.87;2.30;;;12.80;99.90;;;;;;1039766;28;20477;-62
2022/04/29 01:10:47;;;;;;;3.50;1.92;;;12.70;99.90;;;;;;1039607;28;20014;-64
2022/04/29 01:11:23;;;;;;;3.58;2.05;;;12.80;99.90;;;;;;1035885;28;20527;-62
2022/04/29 01:11:54;;;;;;;5.38;2.60;;;12.80;99.90;;;;;;1036997;28;20021;-63
2022/04/29 01:12:26;;;;;;;3.15;2.10;;;12.70;99.90;;;;;;1040059;28;20095;-63
2022/04/29 01:12:59;;;;;;;3.75;2.35;;;12.80;99.90;;;;;;1036311;28;20698;-63
2022/04/29 01:13:31;;;;;;;6.18;2.75;;;12.70;99.90;;;;;;1035739;28;20030;-62
2022/04/29 01:14:01;;;;;;;2.88;1.95;;;12.80;99.90;;;;;;1035947;28;20014;-62
2022/04/29 01:14:32;;;;;;;3.80;2.13;;;12.70;99.90;;;;;;1036353;28;20022;-64
2022/04/29 01:15:09;;;;;;;3.17;2.20;;;12.80;99.90;;;;;;1039454;28;20049;-63
2022/04/29 01:15:40;;;;;;;4.68;2.20;;;12.70;99.90;;;;;;1036012;28;20021;-63
2022/04/29 01:16:11;;;;;;;4.17;2.30;;;12.80;99.90;;;;;;1035816;28;20065;-64
2022/04/29 01:16:41;;;;;;;3.93;2.20;;;12.80;99.90;;;;;;1036653;28;20032;-64
2022/04/29 01:17:12;;;;;;;4.10;2.33;;;12.70;99.90;;;;;;1039865;28;20521;-63
2022/04/29 01:17:45;;;;;;;3.88;2.17;;;12.70;99.90;;;;;;1035817;28;20026;-63
2022/04/29 01:18:17;;;;;;;4.20;2.47;;;12.80;99.90;;;;;;1031448;28;20049;-62
2022/04/29 01:18:50;;;;;;;3.55;2.40;;;12.80;99.90;;;;;;1035593;28;20018;-62
2022/04/29 01:19:20;;;;;;;3.88;2.10;;;12.70;99.90;;;;;;1036034;28;20043;-63
2022/04/29 01:19:51;;;;;;;3.53;2.27;;;12.80;99.90;;;;;;1035806;28;20372;-63
2022/04/29 01:20:27;;;;;;;4.33;2.43;;;12.70;99.90;;;;;;1036313;28;20022;-63
2022/04/29 01:21:03;;;;;;;4.60;2.95;;;12.70;99.90;;;;;;1035833;28;20050;-64
2022/04/29 01:21:34;;;;;;;3.47;2.45;;;12.80;99.90;;;;;;1039275;28;20037;-64
2022/04/29 01:22:05;;;;;;;3.93;2.23;;;12.70;99.90;;;;;;1039645;28;20079;-63
2022/04/29 01:22:35;;;;;;;4.17;2.43;;;12.80;99.90;;;;;;1040018;28;20018;-64
2022/04/29 01:23:07;;;;;;;4.00;2.13;;;12.70;99.90;;;;;;1039341;28;20024;-61
2022/04/29 01:23:38;;;;;;;3.03;2.15;;;12.70;99.90;;;;;;1040071;28;20104;-63
2022/04/29 01:24:09;;;;;;;5.90;2.43;;;12.80;99.90;;;;;;1039691;28;20036;-62
2022/04/29 01:24:39;;;;;;;3.93;2.23;;;12.80;99.90;;;;;;1039786;28;20044;-62
2022/04/29 01:25:11;;;;;;;5.47;2.23;;;12.80;99.90;;;;;;1035600;28;20028;-61
2022/04/29 01:25:42;;;;;;;3.78;2.45;;;12.80;99.90;;;;;;1036133;28;20473;-61
2022/04/29 01:26:15;;;;;;;4.40;2.63;;;12.80;99.90;;;;;;1039910;28;20021;-62
2022/04/29 01:26:45;;;;;;;4.70;2.50;;;12.80;99.90;;;;;;1035548;28;20712;-62
2022/04/29 01:27:16;;;;;;;3.33;2.47;;;12.80;99.90;;;;;;1036066;28;20374;-63
2022/04/29 01:27:46;;;;;;;6.30;2.70;;;12.70;99.90;;;;;;1039941;28;20013;-63
2022/04/29 01:28:17;;;;;;;2.70;2.13;;;12.70;99.90;;;;;;1039947;28;20032;-62
2022/04/29 01:28:48;;;;;;;5.30;2.30;;;12.70;99.90;;;;;;1039466;28;20127;-63
2022/04/29 01:29:19;;;;;;;3.67;2.33;;;12.70;99.90;;;;;;1039902;28;20025;-61
2022/04/29 01:30:04;;;;;;;3.95;2.78;;;12.70;99.90;;;;;;1039790;28;20029;-62
2022/04/29 01:30:38;;;;;;;4.47;2.40;;;12.70;99.90;;;;;;1040005;28;20527;-61
2022/04/29 01:31:11;;;;;;;5.90;2.35;;;12.70;99.90;;;;;;1039963;28;20041;-64
2022/04/29 01:31:43;;;;;;;5.38;2.53;;;12.70;99.90;;;;;;1040166;28;20045;-61
2022/04/29 01:32:14;;;;;;;2.08;1.80;;;12.70;99.90;;;;;;1039729;28;20466;-62
2022/04/29 01:32:45;;;;;;;5.13;2.67;;;12.70;99.90;;;;;;1039791;28;20017;-62
2022/04/29 01:33:17;;;;;;;7.57;2.63;;;12.70;99.90;;;;;;1038959;28;20109;-62
2022/04/29 01:33:50;;;;;;;5.63;2.20;;;12.70;99.90;;;;;;1039730;28;20047;-63
2022/04/29 01:34:20;;;;;;;9.13;2.20;;;12.70;99.90;;;;;;1040047;28;20096;-64
2022/04/29 01:34:51;;;;;;;3.43;2.27;;;12.70;99.90;;;;;;1039618;28;20082;-64
2022/04/29 01:35:22;;;;;;;3.77;3.13;;;12.70;99.90;;;;;;1040020;28;20053;-66
2022/04/29 01:35:52;;;;;;;4.77;2.57;;;12.70;99.90;;;;;;1040171;28;20014;-63
2022/04/29 01:36:23;;;;;;;3.37;2.10;;;12.70;99.90;;;;;;1037451;28;20044;-62
2022/04/29 01:36:53;;;;;;;2.73;2.10;;;12.70;99.90;;;;;;1039818;28;20091;-61
2022/04/29 01:37:24;;;;;;;5.93;2.60;;;12.70;99.90;;;;;;1039500;28;20036;-62
2022/04/29 01:37:54;;;;;;;5.50;2.70;;;12.70;99.90;;;;;;1039751;28;20014;-61
2022/04/29 01:38:25;;;;;;;2.57;2.00;;;12.60;99.90;;;;;;1039199;28;20021;-61
2022/04/29 01:38:55;;;;;;;4.00;2.60;;;12.60;99.90;;;;;;1039544;28;20373;-63
2022/04/29 01:39:26;;;;;;;5.20;2.60;;;12.60;99.90;;;;;;1039961;28;20380;-65
2022/04/29 01:39:57;;;;;;;3.90;1.90;;;12.70;99.90;;;;;;1040077;28;20429;-62
2022/04/29 01:40:28;;;;;;;3.43;2.30;;;12.60;99.90;;;;;;1040171;28;20072;-64
2022/04/29 01:40:58;;;;;;;3.43;2.17;;;12.60;99.90;;;;;;1039828;28;20013;-61
2022/04/29 01:41:29;;;;;;;3.50;2.30;;;12.60;99.90;;;;;;1040086;28;20013;-61
2022/04/29 01:42:00;;;;;;;4.88;2.70;;;12.60;99.90;;;;;;1040144;28;20067;-62
2022/04/29 01:42:30;;;;;;;4.50;2.60;;;12.60;99.90;;;;;;1039769;28;20014;-62
2022/04/29 01:43:02;;;;;;;7.60;3.20;;;12.60;99.90;;;;;;1039555;28;20049;-61
2022/04/29 01:43:34;;;;;;;5.72;2.40;;;12.60;99.90;;;;;;1039796;28;20033;-62
2022/04/29 01:44:05;;;;;;;4.07;2.38;;;12.60;99.90;;;;;;1039734;28;20105;-62
2022/04/29 01:44:35;;;;;;;3.13;2.60;;;12.60;99.90;;;;;;1040067;28;20027;-61
2022/04/29 01:45:08;;;;;;;4.90;2.77;;;12.60;99.90;;;;;;1039760;28;20020;-62
2022/04/29 01:45:38;;;;;;;5.32;2.53;;;12.60;99.90;;;;;;1040167;28;20079;-61
2022/04/29 01:46:09;;;;;;;3.00;2.13;;;12.60;99.90;;;;;;1040133;28;20013;-60
2022/04/29 01:46:39;;;;;;;2.60;1.90;;;12.60;99.90;;;;;;1040142;28;20488;-62
2022/04/29 01:47:10;;;;;;;3.63;2.17;;;12.60;99.90;;;;;;1039762;28;20641;-62
2022/04/29 01:47:40;;;;;;;5.80;2.20;;;12.60;99.90;;;;;;1039770;28;20021;-61
2022/04/29 01:48:11;;;;;;;5.17;2.70;;;12.60;99.90;;;;;;1035546;28;20600;-61
2022/04/29 01:48:42;;;;;;;2.90;2.00;;;12.60;99.90;;;;;;1035031;28;20860;-62
2022/04/29 01:49:12;;;;;;;2.87;2.17;;;12.60;99.90;;;;;;1035439;28;20025;-62
2022/04/29 01:49:43;;;;;;;3.73;2.10;;;12.60;99.90;;;;;;1039890;28;20093;-64
2022/04/29 01:50:13;;;;;;;6.63;3.50;;;12.60;99.90;;;;;;1040095;28;20446;-62
2022/04/29 01:50:44;;;;;;;4.13;2.23;;;12.60;99.90;;;;;;1039993;28;20009;-61
2022/04/29 01:51:15;;;;;;;4.07;2.53;;;12.60;99.90;;;;;;1037831;28;20109;-62
2022/04/29 01:51:45;;;;;;;5.93;2.15;;;12.60;99.90;;;;;;1039133;28;20307;-62
2022/04/29 01:52:16;;;;;;;4.10;2.07;;;12.60;99.90;;;;;;1039264;28;20625;-62
2022/04/29 01:52:46;;;;;;;3.83;2.53;;;12.60;99.90;;;;;;1039581;28;20005;-62
2022/04/29 01:53:17;;;;;;;4.53;2.37;;;12.60;99.90;;;;;;1038907;28;20076;-62
2022/04/29 01:53:53;;;;;;;4.47;2.37;;;12.60;99.90;;;;;;1039421;28;20068;-63
2022/04/29 01:54:24;;;;;;;5.20;2.60;;;12.60;99.90;;;;;;1039806;28;20492;-62
2022/04/29 01:54:54;;;;;;;2.77;2.13;;;12.60;99.90;;;;;;1039588;28;20358;-62
2022/04/29 01:55:27;;;;;;;2.87;2.30;;;12.60;99.90;;;;;;1035605;28;20355;-62
2022/04/29 01:55:58;;;;;;;4.60;2.30;;;12.50;99.90;;;;;;1036132;28;20018;-63
2022/04/29 01:56:35;;;;;;;4.47;2.60;;;12.50;99.90;;;;;;1039818;28;20045;-62
2022/04/29 01:57:06;;;;;;;5.60;2.50;;;12.50;99.90;;;;;;1039566;28;20423;-62
2022/04/29 01:57:37;;;;;;;4.70;2.88;;;12.50;99.90;;;;;;1039931;28;20065;-62
2022/04/29 01:58:07;;;;;;;3.57;2.20;;;12.50;99.90;;;;;;1039589;28;20036;-64
2022/04/29 01:58:38;;;;;;;5.50;2.60;;;12.50;99.90;;;;;;1039729;28;20025;-62
2022/04/29 01:59:08;;;;;;;4.37;2.30;;;12.50;99.90;;;;;;1035205;28;20137;-61
2022/04/29 01:59:39;;;;;;;4.60;3.10;;;12.50;99.90;;;;;;1035653;28;20026;-62
2022/04/29 02:00:11;;;;;;;2.73;2.20;;;12.50;99.90;;;;;;1039700;28;20105;-62
2022/04/29 02:00:41;;;;;;;3.25;2.30;;;12.50;99.90;;;;;;1035882;28;20014;-62
2022/04/29 02:01:13;;;;;;;5.63;2.93;;;12.50;99.90;;;;;;1039411;28;20036;-62
2022/04/29 02:01:44;;;;;;;4.03;2.30;;;12.50;99.90;;;;;;1039535;28;20052;-63
2022/04/29 02:02:16;;;;;;;3.47;2.27;;;12.50;99.90;;;;;;1039699;28;20161;-63
2022/04/29 02:02:47;;;;;;;3.88;2.20;;;12.50;99.90;;;;;;1040059;28;20013;-63
2022/04/29 02:03:17;;;;;;;4.83;2.20;;;12.50;99.90;;;;;;1039806;28;20311;-62
2022/04/29 02:03:48;;;;;;;5.40;2.20;;;12.60;99.90;;;;;;1039007;28;20026;-64
2022/04/29 02:04:18;;;;;;;3.57;2.43;;;12.60;99.90;;;;;;1039852;28;20560;-62
2022/04/29 02:04:49;;;;;;;6.80;2.90;;;12.60;99.90;;;;;;1039672;28;20025;-63
2022/04/29 02:05:19;;;;;;;5.00;2.50;;;12.60;99.90;;;;;;1039504;28;20021;-63
2022/04/29 02:05:50;;;;;;;4.10;2.40;;;12.60;99.90;;;;;;1035464;28;20049;-63
2022/04/29 02:06:21;;;;;;;5.97;3.17;;;12.60;99.90;;;;;;1033795;28;20014;-64
2022/04/29 02:06:52;;;;;;;4.05;2.35;;;12.60;99.90;;;;;;1034668;28;20101;-63
2022/04/29 02:07:23;;;;;;;5.97;2.83;;;12.60;99.90;;;;;;1031057;28;20015;-63
2022/04/29 02:07:53;;;;;;;7.47;2.97;;;12.50;99.90;;;;;;1035561;28;20021;-63
2022/04/29 02:08:24;;;;;;;2.77;2.20;;;12.60;99.90;;;;;;1039269;28;20053;-64
2022/04/29 02:08:54;;;;;;;4.07;2.33;;;12.60;99.90;;;;;;1039440;28;20476;-63
2022/04/29 02:09:25;;;;;;;5.10;2.83;;;12.60;99.90;;;;;;1035321;28;20481;-62
2022/04/29 02:09:56;;;;;;;6.83;2.83;;;12.60;99.90;;;;;;1035604;28;20097;-62
2022/04/29 02:10:27;;;;;;;3.88;2.60;;;12.50;99.90;;;;;;1035670;28;20068;-62
2022/04/29 02:10:57;;;;;;;2.55;2.03;;;12.50;99.90;;;;;;1035820;28;20087;-63
2022/04/29 02:11:28;;;;;;;4.60;2.70;;;12.50;99.90;;;;;;1039443;28;20376;-62
2022/04/29 02:12:05;;;;;;;3.97;2.60;;;12.50;99.90;;;;;;1039755;28;20044;-62
2022/04/29 02:12:36;;;;;;;4.68;2.80;;;12.50;99.90;;;;;;1040076;28;20099;-62
2022/04/29 02:13:08;;;;;;;4.13;2.80;;;12.50;99.90;;;;;;1039856;28;20411;-62
2022/04/29 02:13:38;;;;;;;3.25;2.10;;;12.50;99.90;;;;;;1040028;28;20092;-63
2022/04/29 02:14:09;;;;;;;3.93;2.30;;;12.50;99.90;;;;;;1040023;28;20018;-63
2022/04/29 02:14:42;;;;;;;5.17;2.90;;;12.50;99.90;;;;;;1040149;28;20021;-62
2022/04/29 02:15:12;;;;;;;2.80;2.28;;;12.50;99.90;;;;;;1039734;28;20113;-63
2022/04/29 02:15:43;;;;;;;3.67;2.40;;;12.50;99.90;;;;;;1040050;28;20020;-62
2022/04/29 02:16:14;;;;;;;4.82;3.42;;;12.50;99.90;;;;;;1039535;28;20053;-63
2022/04/29 02:16:44;;;;;;;4.20;2.50;;;12.50;99.90;;;;;;1039750;28;20017;-62
2022/04/29 02:17:15;;;;;;;4.33;2.80;;;12.50;99.90;;;;;;1039371;28;20021;-62
2022/04/29 02:17:46;;;;;;;4.37;2.10;;;12.50;99.90;;;;;;1035545;28;20091;-62
2022/04/29 02:18:17;;;;;;;2.85;2.10;;;12.50;99.90;;;;;;1035514;28;20022;-62
2022/04/29 02:18:47;;;;;;;7.37;2.90;;;12.50;99.90;;;;;;1033729;28;20022;-65
2022/04/29 02:19:18;;;;;;;4.37;2.40;;;12.50;99.90;;;;;;1031532;28;20030;-63
2022/04/29 02:19:48;;;;;;;4.97;2.30;;;12.50;99.90;;;;;;1035577;28;20075;-63
2022/04/29 02:20:21;;;;;;;4.70;2.67;;;12.50;99.90;;;;;;1039673;28;20170;-62
2022/04/29 02:20:51;;;;;;;4.28;2.65;;;12.50;99.90;;;;;;1039430;28;20065;-63
2022/04/29 02:21:22;;;;;;;3.27;2.27;;;12.50;99.90;;;;;;1037569;28;20017;-64
2022/04/29 02:21:53;;;;;;;5.07;2.77;;;12.50;99.90;;;;;;1038472;28;20029;-62
2022/04/29 02:22:24;;;;;;;5.93;3.00;;;12.40;99.90;;;;;;1035861;28;20034;-63
2022/04/29 02:22:54;;;;;;;2.77;2.33;;;12.40;99.90;;;;;;1038991;28;20581;-62
2022/04/29 02:23:25;;;;;;;4.67;2.83;;;12.40;99.90;;;;;;1039531;28;20013;-62
2022/04/29 02:23:55;;;;;;;3.33;2.20;;;12.40;99.90;;;;;;1039070;28;20792;-62
2022/04/29 02:24:26;;;;;;;6.17;2.70;;;12.40;99.90;;;;;;1040122;28;20025;-64
2022/04/29 02:25:00;;;;;;;4.45;2.67;;;12.40;99.90;;;;;;1039894;28;20044;-63
2022/04/29 02:25:30;;;;;;;3.83;2.50;;;12.50;99.90;;;;;;1039539;28;20032;-62
2022/04/29 02:26:01;;;;;;;5.37;3.17;;;12.50;99.90;;;;;;1040029;28;20028;-62
2022/04/29 02:26:31;;;;;;;5.97;3.27;;;12.50;99.90;;;;;;1039990;28;20104;-63
2022/04/29 02:27:04;;;;;;;4.53;2.47;;;12.40;99.90;;;;;;1040115;28;20010;-63
2022/04/29 02:27:36;;;;;;;7.03;2.75;;;12.40;99.90;;;;;;1039727;28;20433;-62
2022/04/29 02:28:06;;;;;;;5.30;2.65;;;12.40;99.90;;;;;;1040073;28;20549;-62
2022/04/29 02:28:37;;;;;;;3.17;2.13;;;12.40;99.90;;;;;;1039973;28;20453;-63
2022/04/29 02:29:07;;;;;;;6.37;2.53;;;12.40;99.90;;;;;;1039925;28;20382;-63
2022/04/29 02:29:38;;;;;;;3.17;2.23;;;12.40;99.90;;;;;;1039780;28;20041;-61
2022/04/29 02:30:09;;;;;;;3.30;2.40;;;12.40;99.90;;;;;;1040003;28;20696;-62
2022/04/29 02:30:40;;;;;;;2.72;2.10;;;12.40;99.90;;;;;;1040029;28;20021;-61
2022/04/29 02:31:11;;;;;;;4.30;2.70;;;12.40;99.90;;;;;;1039962;28;20096;-63
2022/04/29 02:31:41;;;;;;;3.37;2.50;;;12.40;99.90;;;;;;1039925;28;20100;-64
2022/04/29 02:32:12;;;;;;;3.97;2.50;;;12.40;99.90;;;;;;1040029;28;20029;-63
2022/04/29 02:32:43;;;;;;;3.47;2.40;;;12.40;99.90;;;;;;1040007;28;20009;-63
2022/04/29 02:33:13;;;;;;;3.47;2.20;;;12.40;99.90;;;;;;1039865;28;20021;-63
2022/04/29 02:33:44;;;;;;;4.23;2.60;;;12.40;99.90;;;;;;1039409;28;20044;-64
2022/04/29 02:34:15;;;;;;;5.03;2.60;;;12.40;99.90;;;;;;1039754;28;20024;-61
2022/04/29 02:34:45;;;;;;;5.88;2.45;;;12.40;99.90;;;;;;1039953;28;20014;-62
2022/04/29 02:35:16;;;;;;;4.87;2.40;;;12.40;99.90;;;;;;1039493;28;20014;-61
2022/04/29 02:35:46;;;;;;;6.73;2.97;;;12.40;99.90;;;;;;1039477;28;20461;-63
2022/04/29 02:36:17;;;;;;;5.00;3.07;;;12.40;99.90;;;;;;1039271;28;20017;-62
2022/04/29 02:36:48;;;;;;;6.17;2.83;;;12.40;99.90;;;;;;1037045;28;20029;-64
2022/04/29 02:37:18;;;;;;;7.53;3.03;;;12.40;99.90;;;;;;1039485;28;20032;-64
2022/04/29 02:37:49;;;;;;;5.30;2.97;;;12.30;99.90;;;;;;1038687;28;20381;-64
2022/04/29 02:38:19;;;;;;;3.03;2.03;;;12.30;99.90;;;;;;1039873;28;20464;-63
2022/04/29 02:38:50;;;;;;;5.60;2.87;;;12.30;99.90;;;;;;1038730;28;20095;-63
2022/04/29 02:39:21;;;;;;;5.40;2.93;;;12.30;99.90;;;;;;1040024;28;20116;-63
2022/04/29 02:39:53;;;;;;;4.05;2.28;;;12.30;99.90;;;;;;1039720;28;20021;-62
2022/04/29 02:40:24;;;;;;;5.78;2.40;;;12.30;99.90;;;;;;1040094;28;20018;-62
2022/04/29 02:40:54;;;;;;;3.10;2.30;;;12.30;99.90;;;;;;1039345;28;20017;-62
2022/04/29 02:41:25;;;;;;;2.97;2.33;;;12.30;99.90;;;;;;1039624;28;20017;-62
2022/04/29 02:41:55;;;;;;;3.87;2.53;;;12.30;99.90;;;;;;1039339;28;20484;-61
2022/04/29 02:42:28;;;;;;;6.73;3.33;;;12.30;99.90;;;;;;1039828;28;20020;-62
2022/04/29 02:42:58;;;;;;;6.78;2.75;;;12.30;99.90;;;;;;1039872;28;20013;-61
2022/04/29 02:43:29;;;;;;;4.03;2.80;;;12.30;99.90;;;;;;1039720;28;20029;-64
2022/04/29 02:43:59;;;;;;;6.10;2.57;;;12.30;99.90;;;;;;1039933;28;20095;-63
2022/04/29 02:44:30;;;;;;;3.80;2.93;;;12.30;99.90;;;;;;1039982;28;20557;-63